• Join FlightAware (Why Join?)
  • Login
  • US Flag 
05:40PM EDT


 

Airport Tracker/Info


-or-


 

Live Flight TrackerFlight Track Log ✈ G52651 ✈ 23-Dec-2013 ✈ ZGNN / NNG - ZGWZ / WUZ

Flight Track Log - Related Links

Times and Time Zones

All times are in EST time to prevent confusion due to time zone crossing. See the G52651 flight status page for this flight to view local times or setup timezone preferences in your user account.

Time Position Orientation Groundspeed Altitude Reporting Facility
EST Latitude Longitude Course Direction KTS MPH feet Rate Location/Type
09:29PM 22.9967 109.5491 73° East  Level Estimated
09:30PM 23.0250 109.6514 73° East  Level Estimated
09:31PM 23.0532 109.7538 73° East  Level Estimated
09:32PM 23.0814 109.8561 73° East  Level Estimated
09:33PM 23.1095 109.9586 73° East  Level Estimated
09:34PM 23.1375 110.0610 73° East  Level Estimated
09:35PM 23.1655 110.1635 73° East  Level Estimated
09:36PM 23.1934 110.2661 73° East  Level Estimated
09:37PM 23.2213 110.3687 74° East  Level Estimated
09:38PM 23.2490 110.4713 74° East  Level Estimated
09:39PM 23.2767 110.5740 74° East  Level Estimated
09:40PM 23.3044 110.6767 74° East  Level Estimated
09:41PM 23.3319 110.7795 74° East  Level Estimated
09:42PM 23.3594 110.8823 74° East  Level Estimated
09:43PM 23.3869 110.9851 74° East  Level Estimated
09:44PM 23.4142 111.0880 74° East  Level Estimated
09:45PM 23.4415 111.1909 74° East  Level Estimated
09:46PM 23.4567 111.2481 74° East  Level Estimated
09:47PM 23.4567 111.2481 231° Southwest  Level Estimated
09:48PM 23.4567 111.2481 231° Southwest  Level Estimated
09:49PM 23.4567 111.2481 231° Southwest  Level Estimated
09:50PM 23.4567 111.2481 231° Southwest  Level Estimated
09:51PM 23.4567 111.2481 231° Southwest  Level Estimated
09:52PM 23.4567 111.2481 231° Southwest  Level Estimated
09:53PM 23.4567 111.2481 231° Southwest  Level Estimated
09:54PM 23.4567 111.2481 231° Southwest  Level Estimated
09:55PM 23.4567 111.2481 231° Southwest  Level Estimated
09:56PM 23.4567 111.2481 231° Southwest  Level Estimated
09:57PM 23.4567 111.2481 231° Southwest  Level Estimated
09:58PM 23.4567 111.2481 231° Southwest  Level Estimated
09:59PM 23.4567 111.2481 231° Southwest  Level Estimated
10:00PM 23.4567 111.2481 231° Southwest  Level Estimated
10:01PM 23.4567 111.2481 231° Southwest  Level Estimated
10:02PM 23.4567 111.2481 231° Southwest  Level Estimated
10:03PM 23.4567 111.2481 231° Southwest  Level Estimated
10:04PM 23.4567 111.2481 231° Southwest  Level Estimated
10:05PM 23.4567 111.2481 231° Southwest  Level Estimated
10:06PM 23.4567 111.2481 231° Southwest  Level Estimated